Time;durP1;ratioP1;P1;durP2;ratioP2;P2;SDS_P1;SDS_P2;PMS_P1;PMS_P2;Temp;Humidity;BMP_temperature;BMP_pressure;BME280_temperature;BME280_humidity;BME280_pressure;Samples;Min_cycle;Max_cycle;Signal;HPM_P1;HPM_P2
2022/01/12 00:02:11;;;;;;;8.68;7.65;;;;;;;-2.66;69.27;95537.19;4912253;29;20029;-78
2022/01/12 00:04:39;;;;;;;15.65;8.75;;;;;;;-2.68;69.35;95528.91;4889093;29;20036;-78
2022/01/12 00:07:05;;;;;;;11.88;8.43;;;;;;;-2.59;68.88;95535.75;4904483;29;20393;-78
2022/01/12 00:09:30;;;;;;;9.85;7.63;;;;;;;-2.68;69.31;95539.06;4887339;29;20040;-78
2022/01/12 00:11:56;;;;;;;10.90;8.23;;;;;;;-2.68;69.21;95533.19;4905378;29;20512;-78
2022/01/12 00:14:21;;;;;;;10.75;8.70;;;;;;;-2.67;69.20;95535.59;4905730;29;20531;-78
2022/01/12 00:16:48;;;;;;;11.07;7.85;;;;;;;-2.65;68.74;95530.38;4874288;29;20035;-79
2022/01/12 00:19:13;;;;;;;13.48;8.82;;;;;;;-2.54;69.26;95541.25;4891173;29;20100;-78
2022/01/12 00:21:41;;;;;;;12.57;8.00;;;;;;;-2.67;69.29;95534.78;4897348;29;20511;-79
2022/01/12 00:24:08;;;;;;;25.58;12.18;;;;;;;-2.56;69.17;95539.75;4889422;29;20081;-78
2022/01/12 00:34:47;;;;;;;11.32;8.68;;;;;;;-2.55;68.36;95554.91;4906823;29;20051;-78
2022/01/12 00:37:12;;;;;;;12.05;9.45;;;;;;;-2.63;68.64;95557.28;4929098;29;20032;-78
2022/01/12 00:39:38;;;;;;;10.13;7.45;;;;;;;-2.78;69.36;95554.31;4906605;29;20041;-78
2022/01/12 00:42:13;;;;;;;12.18;8.77;;;;;;;-2.87;69.49;95554.31;4898752;29;20044;-78
2022/01/12 00:44:44;;;;;;;13.10;8.18;;;;;;;-2.82;69.71;95554.72;4897168;29;20096;-78
2022/01/12 00:47:09;;;;;;;12.63;8.55;;;;;;;-2.78;69.39;95553.53;4890688;29;20072;-78
2022/01/12 00:49:34;;;;;;;13.13;8.27;;;;;;;-2.77;69.48;95552.59;4895383;29;20036;-78
2022/01/12 00:52:00;;;;;;;13.57;9.45;;;;;;;-2.80;68.36;95555.41;4904911;29;20028;-78
2022/01/12 00:54:28;;;;;;;10.20;7.90;;;;;;;-2.73;69.14;95551.41;4888861;29;20063;-78
2022/01/12 00:56:54;;;;;;;9.75;8.23;;;;;;;-2.81;69.03;95546.16;4896761;29;20040;-78
2022/01/12 00:59:22;;;;;;;11.55;8.43;;;;;;;-2.75;68.79;95548.19;4904827;29;20043;-78
2022/01/12 01:01:55;;;;;;;11.00;8.25;;;;;;;-2.71;68.35;95544.44;4872837;29;20044;-79
2022/01/12 01:04:22;;;;;;;11.25;7.88;;;;;;;-2.71;68.48;95536.81;4889541;29;20405;-78
2022/01/12 01:06:50;;;;;;;14.88;8.70;;;;;;;-2.58;67.70;95556.91;4890447;29;20405;-78
2022/01/12 01:09:17;;;;;;;13.98;9.20;;;;;;;-2.67;67.73;95555.16;4888939;29;20036;-78
2022/01/12 01:11:43;;;;;;;10.15;7.70;;;;;;;-2.72;68.34;95558.91;4889339;29;20059;-78
2022/01/12 01:14:23;;;;;;;13.65;8.57;;;;;;;-2.77;68.09;95555.97;4888640;29;20397;-78
2022/01/12 01:17:15;;;;;;;8.70;7.15;;;;;;;-2.67;67.75;95539.88;4874985;29;20048;-79
2022/01/12 01:28:12;;;;;;;14.98;8.57;;;;;;;-2.69;67.95;95552.75;4843916;29;20042;-77
2022/01/12 01:30:39;;;;;;;9.30;7.43;;;;;;;-2.52;67.03;95553.84;4875116;29;20127;-76
2022/01/12 01:33:17;;;;;;;8.63;6.45;;;;;;;-2.46;66.11;95546.44;4904408;24;20036;-77
2022/01/12 01:35:56;;;;;;;10.82;7.72;;;;;;;-2.66;66.91;95552.47;4918756;29;20051;-77
2022/01/12 01:41:38;;;;;;;13.05;7.60;;;;;;;-2.78;67.46;95540.78;4910543;29;20467;-77
2022/01/12 01:54:51;;;;;;;10.25;7.18;;;;;;;-2.84;66.76;95561.69;4916347;29;20062;-77
2022/01/12 01:57:17;;;;;;;9.75;7.35;;;;;;;-2.97;67.23;95568.75;4914832;29;20523;-77
2022/01/12 01:59:42;;;;;;;8.27;6.50;;;;;;;-2.90;67.04;95569.88;4930533;29;20020;-77
2022/01/12 02:02:08;;;;;;;9.60;7.15;;;;;;;-2.81;67.07;95567.31;4898564;29;20045;-77
2022/01/12 02:04:33;;;;;;;8.82;6.72;;;;;;;-2.92;66.73;95571.75;4929903;29;20031;-77
2022/01/12 02:06:58;;;;;;;8.35;6.70;;;;;;;-2.87;67.17;95574.69;4913984;29;20047;-77
2022/01/12 02:09:25;;;;;;;10.57;7.50;;;;;;;-2.82;67.03;95573.34;4898278;29;20032;-78
2022/01/12 02:11:53;;;;;;;10.15;6.70;;;;;;;-2.76;66.25;95582.22;4913725;29;20025;-77
2022/01/12 02:14:19;;;;;;;10.70;7.70;;;;;;;-2.97;67.11;95579.75;4929624;29;20036;-77
2022/01/12 02:16:55;;;;;;;9.85;7.57;;;;;;;-2.94;66.95;95568.50;4914302;29;20485;-77
2022/01/12 02:40:55;;;;;;;10.02;7.43;;;;;;;-2.99;66.12;95603.72;4925850;29;20111;-77
2022/01/12 02:50:42;;;;;;;23.90;12.98;;;;;;;-3.10;66.90;95610.50;4913942;29;20531;-77
2022/01/12 02:51:33;;;;;;;12.15;8.65;;;;;;;-3.14;66.41;95621.88;4913645;29;20040;-77
2022/01/12 02:53:59;;;;;;;9.82;7.63;;;;;;;-3.28;67.44;95626.47;4929327;29;20044;-77
2022/01/12 02:56:29;;;;;;;14.18;8.18;;;;;;;-3.09;66.62;95614.69;4913120;29;20036;-77
2022/01/12 02:58:59;;;;;;;9.95;7.47;;;;;;;-3.08;66.67;95629.00;4928186;29;20052;-78
2022/01/12 03:01:59;;;;;;;10.18;7.55;;;;;;;-3.04;66.13;95629.53;4914493;29;20047;-77
2022/01/12 03:04:20;;;;;;;11.18;7.38;;;;;;;-3.07;65.87;95634.91;4925150;29;20040;-77
2022/01/12 03:06:46;;;;;;;11.60;7.47;;;;;;;-3.06;66.37;95626.31;4929674;29;20107;-77
2022/01/12 03:09:13;;;;;;;8.55;7.25;;;;;;;-3.03;66.33;95634.50;4913173;29;20404;-77
2022/01/12 03:11:42;;;;;;;10.63;7.00;;;;;;;-3.14;66.27;95642.22;4914657;29;20032;-77
2022/01/12 03:14:10;;;;;;;8.55;6.88;;;;;;;-3.07;65.97;95628.06;4914045;29;20051;-77
2022/01/12 03:16:36;;;;;;;12.43;8.50;;;;;;;-3.05;65.66;95633.03;4913369;29;20064;-77
2022/01/12 03:19:02;;;;;;;9.70;6.40;;;;;;;-3.11;65.59;95644.50;4913398;29;20059;-77
2022/01/12 03:21:29;;;;;;;7.68;6.63;;;;;;;-3.12;66.14;95640.34;4914957;29;20415;-78
2022/01/12 03:24:00;;;;;;;10.20;7.68;;;;;;;-3.17;65.54;95639.94;4913297;29;20428;-77
2022/01/12 03:26:27;;;;;;;11.45;7.85;;;;;;;-3.11;65.96;95643.69;4928030;29;20050;-77
2022/01/12 03:28:54;;;;;;;11.32;7.90;;;;;;;-3.04;66.12;95637.19;4912824;29;20064;-77
2022/01/12 03:31:28;;;;;;;9.00;7.38;;;;;;;-3.02;65.91;95643.75;4914464;29;20040;-77
2022/01/12 03:33:58;;;;;;;9.35;6.78;;;;;;;-3.05;65.38;95646.53;4928447;29;20040;-77
2022/01/12 04:10:19;;;;;;;10.88;7.03;;;;;;;-2.70;63.68;95692.88;4912521;29;20080;-77
2022/01/12 04:12:44;;;;;;;11.27;8.00;;;;;;;-2.69;63.79;95685.13;4913074;29;20055;-78
2022/01/12 04:15:10;;;;;;;10.25;7.65;;;;;;;-2.52;63.02;95704.88;4913619;29;20056;-77
2022/01/12 04:17:35;;;;;;;10.38;7.85;;;;;;;-2.58;63.40;95705.41;4913033;29;20032;-78
2022/01/12 04:20:02;;;;;;;10.95;7.82;;;;;;;-2.52;63.18;95715.06;4929179;29;20117;-77
2022/01/12 04:25:12;;;;;;;13.15;8.45;;;;;;;-2.22;62.00;95708.28;4914468;29;20047;-77
2022/01/12 04:27:39;;;;;;;14.05;8.48;;;;;;;-2.27;62.29;95706.16;4917317;29;20032;-78
2022/01/12 04:30:08;;;;;;;11.98;7.95;;;;;;;-2.27;61.73;95725.72;4917285;29;20726;-77
2022/01/12 04:32:37;;;;;;;11.48;9.13;;;;;;;-2.33;63.00;95721.13;4899450;29;20481;-77
2022/01/12 04:35:03;;;;;;;9.98;8.02;;;;;;;-2.20;62.44;95729.34;4963879;23;20886;-77
2022/01/12 04:37:34;;;;;;;11.30;7.55;;;;;;;-2.20;62.10;95722.50;4914050;29;20044;-77
2022/01/12 04:40:01;;;;;;;18.58;8.80;;;;;;;-2.08;61.76;95730.84;4906020;29;20044;-77
2022/01/12 04:42:27;;;;;;;8.00;6.13;;;;;;;-2.20;61.37;95726.81;4906140;29;20036;-77
2022/01/12 04:45:00;;;;;;;11.73;7.93;;;;;;;-2.22;61.62;95723.59;4904602;29;20094;-77
2022/01/12 04:47:40;;;;;;;12.02;8.43;;;;;;;-2.44;62.32;95725.41;4890362;29;20044;-77
2022/01/12 04:50:06;;;;;;;10.20;7.90;;;;;;;-2.37;62.11;95730.78;4907211;29;20043;-78
2022/01/12 04:52:31;;;;;;;12.10;8.73;;;;;;;-2.33;62.14;95731.31;4903471;29;20424;-78
2022/01/12 04:54:59;;;;;;;12.52;7.97;;;;;;;-2.31;62.12;95730.25;4906357;29;20515;-77
2022/01/12 04:57:24;;;;;;;13.73;8.90;;;;;;;-2.12;61.64;95743.06;4923767;29;20044;-77
2022/01/12 05:00:07;;;;;;;14.07;9.15;;;;;;;-2.06;61.21;95744.28;4908878;29;20023;-79
2022/01/12 05:13:23;;;;;;;15.43;9.27;;;;;;;-1.98;60.87;95752.03;4908737;29;20058;-76
2022/01/12 05:15:50;;;;;;;22.33;9.40;;;;;;;-1.91;60.76;95768.44;4922665;29;20481;-78
2022/01/12 05:18:15;;;;;;;12.77;8.23;;;;;;;-1.96;60.35;95768.00;4887936;29;20027;-76
2022/01/12 05:20:43;;;;;;;20.75;7.35;;;;;;;-1.93;59.98;95765.22;4906599;29;20038;-77
2022/01/12 05:23:09;;;;;;;12.88;8.20;;;;;;;-2.00;59.85;95776.84;4906210;29;20044;-78
2022/01/12 05:25:36;;;;;;;14.77;8.55;;;;;;;-1.87;60.12;95779.97;4910059;29;20036;-77
2022/01/12 05:28:05;;;;;;;12.93;7.65;;;;;;;-1.70;59.50;95781.06;4893082;29;20044;-77
2022/01/12 05:30:30;;;;;;;11.50;7.60;;;;;;;-1.64;58.65;95789.94;4894085;29;20559;-75
2022/01/12 05:32:55;;;;;;;11.70;7.85;;;;;;;-1.66;58.58;95792.63;4910119;29;20052;-78
2022/01/12 05:35:21;;;;;;;12.05;7.80;;;;;;;-1.59;58.81;95792.91;4893287;29;20043;-77
2022/01/12 05:37:47;;;;;;;12.63;7.90;;;;;;;-1.48;58.30;95800.41;4908803;29;20047;-79
2022/01/12 05:40:13;;;;;;;12.27;8.20;;;;;;;-1.43;58.02;95798.28;4910571;29;20036;-78
2022/01/12 05:42:43;;;;;;;14.30;7.63;;;;;;;-1.37;57.57;95792.63;4879387;29;20035;-78
2022/01/12 05:45:09;;;;;;;11.63;7.90;;;;;;;-1.38;57.20;95791.03;4916540;29;20028;-78
2022/01/12 05:49:33;;;;;;;12.93;8.45;;;;;;;-1.43;57.17;95795.75;4918637;29;20040;-78
2022/01/12 05:50:23;;;;;;;10.55;7.38;;;;;;;-1.51;57.42;95804.03;4910085;29;20051;-78
2022/01/12 05:52:48;;;;;;;10.07;7.15;;;;;;;-1.74;57.45;95799.31;4912057;29;20047;-79
2022/01/12 05:55:14;;;;;;;20.48;7.78;;;;;;;-1.74;57.73;95804.44;4910215;29;20122;-79
2022/01/12 05:57:40;;;;;;;13.00;9.20;;;;;;;-1.68;57.52;95803.88;4910789;29;20035;-79
2022/01/12 06:00:07;;;;;;;15.93;7.05;;;;;;;-1.56;57.12;95813.03;4909500;29;20032;-79
2022/01/12 06:02:33;;;;;;;13.50;8.25;;;;;;;-1.58;57.11;95814.91;4905736;24;20039;-79
2022/01/12 06:04:58;;;;;;;9.45;6.97;;;;;;;-1.54;56.86;95816.25;4934833;29;20047;-79
2022/01/12 06:07:26;;;;;;;14.93;7.32;;;;;;;-1.65;57.44;95824.81;4918214;29;20035;-79
2022/01/12 06:09:52;;;;;;;13.43;8.45;;;;;;;-1.49;56.95;95828.59;4915790;29;20042;-77
2022/01/12 06:12:17;;;;;;;20.20;9.18;;;;;;;-1.50;57.10;95827.81;4933443;29;20028;-77
2022/01/12 06:14:43;;;;;;;11.18;8.02;;;;;;;-1.38;56.97;95847.16;4914989;29;20132;-77
2022/01/12 06:17:09;;;;;;;11.48;8.43;;;;;;;-1.27;56.22;95839.38;4931655;29;20425;-77
2022/01/12 06:19:34;;;;;;;11.13;7.22;;;;;;;-1.24;55.99;95854.41;4934056;29;20087;-77
2022/01/12 06:22:00;;;;;;;11.80;8.05;;;;;;;-1.29;56.05;95848.91;4933906;29;20051;-77
2022/01/12 06:24:26;;;;;;;11.38;7.80;;;;;;;-1.31;56.40;95852.53;4917608;29;20031;-82
2022/01/12 06:26:52;;;;;;;15.88;7.75;;;;;;;-1.25;56.08;95857.91;4902900;29;20023;-77
2022/01/12 06:31:48;;;;;;;14.60;8.35;;;;;;;-1.28;56.54;95878.59;4934963;29;20411;-78
2022/01/12 06:34:13;;;;;;;9.80;7.47;;;;;;;-1.36;56.85;95870.78;4902914;29;20062;-76
2022/01/12 06:36:39;;;;;;;12.52;7.82;;;;;;;-1.37;56.62;95873.47;4914931;29;20492;-78
2022/01/12 06:39:11;;;;;;;13.27;8.20;;;;;;;-1.30;56.87;95872.03;4945932;23;20505;-83
2022/01/12 06:41:37;;;;;;;;;;;;;;;-1.14;56.15;95874.03;4902126;29;20028;-76
2022/01/12 06:44:20;;;;;;;12.73;8.13;;;;;;;-0.74;55.67;95877.25;4933783;29;19954;-75
2022/01/12 06:46:48;;;;;;;13.27;8.23;;;;;;;-0.30;54.47;95880.16;4900703;29;20134;-75
2022/01/12 06:49:15;;;;;;;9.82;7.45;;;;;;;-0.13;53.42;95887.09;4933634;29;20411;-75
2022/01/12 06:51:41;;;;;;;16.98;8.75;;;;;;;-0.11;52.74;95885.19;4933266;29;20040;-75
2022/01/12 06:54:06;;;;;;;11.85;8.05;;;;;;;0.01;52.49;95882.47;4933963;29;20480;-77
2022/01/12 06:56:47;;;;;;;10.52;7.22;;;;;;;-0.18;52.50;95893.53;4917039;29;20043;-75
2022/01/12 06:59:13;;;;;;;13.20;8.18;;;;;;;-0.37;52.75;95891.84;4932353;29;20043;-76
2022/01/12 07:01:38;;;;;;;10.80;7.75;;;;;;;-0.49;52.84;95900.59;4933758;29;20079;-76
2022/01/12 07:04:04;;;;;;;8.98;7.63;;;;;;;-0.84;53.98;95906.28;4933711;29;20039;-75
2022/01/12 07:06:34;;;;;;;9.82;7.85;;;;;;;-1.03;54.40;95907.09;4916331;29;20035;-75
2022/01/12 07:09:00;;;;;;;12.00;7.93;;;;;;;-1.21;54.79;95904.38;4896401;29;20048;-75
2022/01/12 07:11:26;;;;;;;11.40;7.70;;;;;;;-1.17;54.95;95904.91;4911162;29;20048;-75
2022/01/12 07:13:57;;;;;;;13.65;7.97;;;;;;;-1.51;55.70;95915.47;4912106;29;20155;-75
2022/01/12 07:16:23;;;;;;;9.50;6.17;;;;;;;-1.66;55.94;95909.09;4896788;29;20544;-76
2022/01/12 07:18:48;;;;;;;9.20;7.18;;;;;;;-1.74;56.11;95916.59;4912369;29;20051;-76
2022/01/12 07:21:14;;;;;;;10.93;8.48;;;;;;;-2.06;57.04;95917.56;4912245;29;20048;-76
2022/01/12 07:23:39;;;;;;;9.82;7.60;;;;;;;-2.38;58.28;95932.13;4911966;29;20122;-75
2022/01/12 07:26:05;;;;;;;18.90;8.18;;;;;;;-2.63;58.68;95941.72;4888486;29;20040;-76
2022/01/12 07:28:31;;;;;;;12.75;7.63;;;;;;;-2.67;59.77;95945.47;4911601;29;20040;-76
2022/01/12 07:30:56;;;;;;;11.25;7.65;;;;;;;-2.64;59.11;95945.22;4912056;29;20130;-76
2022/01/12 07:33:25;;;;;;;14.93;9.02;;;;;;;-2.70;59.84;95942.34;4904053;29;20035;-76
2022/01/12 07:35:51;;;;;;;11.65;7.90;;;;;;;-2.46;59.17;95941.19;4881149;29;20051;-77
2022/01/12 07:38:19;;;;;;;15.13;10.07;;;;;;;-2.08;58.10;95944.09;4895856;29;20040;-76
2022/01/12 07:40:44;;;;;;;12.65;8.30;;;;;;;-1.72;57.29;95935.94;4915027;29;20493;-76
2022/01/12 07:43:10;;;;;;;9.65;7.57;;;;;;;-1.35;55.69;95932.81;4915628;29;20034;-75
2022/01/12 07:45:35;;;;;;;14.50;8.85;;;;;;;-1.60;55.90;95939.22;4915947;29;20039;-75
2022/01/12 07:48:03;;;;;;;9.82;7.82;;;;;;;-1.75;58.03;95935.41;4918463;29;20023;-80
2022/01/12 07:50:28;;;;;;;9.32;7.63;;;;;;;-1.79;58.42;95949.31;4916379;23;20409;-80
2022/01/12 07:52:54;;;;;;;9.45;7.07;;;;;;;-1.79;57.07;95939.13;4924041;29;20043;-80
2022/01/12 07:55:20;;;;;;;8.20;6.10;;;;;;;-2.08;56.80;95957.66;4913317;29;20056;-80
2022/01/12 07:57:49;;;;;;;6.97;5.68;;;;;;;-2.07;57.00;95946.53;4897113;29;20040;-81
2022/01/12 08:00:15;;;;;;;7.93;6.00;;;;;;;-1.91;56.43;95953.72;4912472;29;20481;-79
2022/01/12 08:02:40;;;;;;;9.68;6.13;;;;;;;-1.86;56.46;95957.47;4916429;29;20058;-80
2022/01/12 08:05:09;;;;;;;8.68;6.40;;;;;;;-1.73;57.34;95964.13;4915714;29;20024;-81
2022/01/12 08:07:38;;;;;;;16.48;6.90;;;;;;;-1.60;56.49;95974.91;4912485;29;20040;-80
2022/01/12 08:10:04;;;;;;;7.28;5.78;;;;;;;-1.74;55.51;95962.50;4915593;29;20032;-81
2022/01/12 08:12:29;;;;;;;9.05;6.63;;;;;;;-1.89;56.12;95983.22;4915609;29;20032;-81
2022/01/12 08:14:55;;;;;;;8.02;6.07;;;;;;;-2.03;55.98;95982.75;4901632;29;20575;-79
2022/01/12 08:17:21;;;;;;;8.35;6.88;;;;;;;-2.08;56.73;95975.47;4917420;29;20501;-82
2022/01/12 08:19:46;;;;;;;8.55;6.18;;;;;;;-2.13;55.99;95993.69;4913483;29;20094;-83
2022/01/12 08:22:12;;;;;;;8.63;6.88;;;;;;;-2.54;57.43;95991.94;4884216;29;20072;-84
2022/01/12 08:24:37;;;;;;;14.27;7.47;;;;;;;-2.51;58.25;95996.78;4884427;29;20036;-82
2022/01/12 08:27:03;;;;;;;8.38;6.15;;;;;;;-2.44;57.56;95987.72;4900736;29;20416;-82
2022/01/12 08:29:29;;;;;;;10.73;7.38;;;;;;;-2.45;57.94;95993.72;4900162;29;20175;-83
2022/01/12 08:31:55;;;;;;;7.43;6.60;;;;;;;-2.39;58.05;96001.81;4900142;29;20028;-82
2022/01/12 08:34:21;;;;;;;8.70;6.40;;;;;;;-2.38;56.94;95998.34;4884530;29;20054;-82
2022/01/12 08:36:46;;;;;;;10.27;7.00;;;;;;;-2.47;57.26;96000.69;4900055;29;20032;-83
2022/01/12 08:39:12;;;;;;;9.35;7.53;;;;;;;-2.54;58.15;95994.47;4898837;29;20537;-82
2022/01/12 08:41:37;;;;;;;9.50;5.85;;;;;;;-2.37;57.50;95999.97;4884271;29;20032;-83
2022/01/12 08:49:39;;;;;;;10.13;6.65;;;;;;;-2.21;56.50;95995.25;4849140;29;20041;-84
2022/01/12 08:52:55;;;;;;;7.90;5.78;;;;;;;-2.22;56.48;95994.44;5062165;23;20019;-84
2022/01/12 08:55:33;;;;;;;;;;;;;;;;;;;;;
2022/01/12 08:58:13;;;;;;;8.18;5.93;;;;;;;-2.14;55.94;95994.63;4915325;29;20040;-84
2022/01/12 09:01:03;;;;;;;9.30;6.32;;;;;;;-2.30;56.54;96006.97;4912197;24;20130;-85
2022/01/12 09:03:43;;;;;;;6.30;5.68;;;;;;;-2.36;56.88;96004.13;4940538;29;20050;-84
2022/01/12 09:06:14;;;;;;;7.65;5.90;;;;;;;-2.42;56.97;95998.59;4937544;29;20046;-84
2022/01/12 09:08:42;;;;;;;6.82;5.80;;;;;;;-2.39;56.78;96004.38;4963366;23;20048;-84
2022/01/12 09:11:08;;;;;;;7.20;6.03;;;;;;;-2.46;57.19;96007.41;4909820;29;20032;-84
2022/01/12 09:13:33;;;;;;;6.00;5.50;;;;;;;-2.45;57.60;95998.81;4895852;29;20043;-85
2022/01/12 09:16:03;;;;;;;7.15;5.72;;;;;;;-2.32;57.70;95998.66;4907231;29;20040;-84
2022/01/12 09:18:31;;;;;;;10.60;6.55;;;;;;;-2.00;56.43;96006.22;4927535;29;20043;-84
2022/01/12 09:20:57;;;;;;;5.95;5.45;;;;;;;-1.66;54.34;95995.81;4930794;29;20036;-78
2022/01/12 09:23:23;;;;;;;5.75;5.15;;;;;;;-1.62;54.25;95992.91;4929333;29;20032;-79
2022/01/12 09:25:48;;;;;;;6.18;5.53;;;;;;;-1.56;54.25;95996.66;4932843;29;20060;-77
2022/01/12 09:28:13;;;;;;;8.00;5.60;;;;;;;-1.41;53.65;95985.19;4913562;29;20117;-79
2022/01/12 09:30:39;;;;;;;13.75;5.50;;;;;;;-1.31;53.80;95991.09;4898887;29;20038;-79
2022/01/12 09:33:05;;;;;;;6.53;5.70;;;;;;;-1.44;53.56;95990.53;4915793;29;20040;-78
2022/01/12 09:35:49;;;;;;;11.93;5.70;;;;;;;-1.29;53.69;95984.16;4924723;29;20754;-78
2022/01/12 09:38:16;;;;;;;6.95;4.95;;;;;;;-1.11;52.78;95993.72;4923629;29;20035;-78
2022/01/12 09:40:43;;;;;;;5.10;4.70;;;;;;;-1.07;52.04;95989.97;4933916;23;20044;-78
2022/01/12 09:43:10;;;;;;;5.75;5.15;;;;;;;-0.89;51.77;95987.59;4929792;23;20195;-78
2022/01/12 09:45:39;;;;;;;6.00;5.40;;;;;;;-0.81;51.83;95988.56;4933159;29;20052;-78
2022/01/12 09:48:09;;;;;;;5.70;4.82;;;;;;;-0.84;51.47;95985.44;4938344;29;20056;-77
2022/01/12 09:50:38;;;;;;;5.18;4.68;;;;;;;-1.01;52.63;95981.78;4946995;29;20032;-78
2022/01/12 09:53:03;;;;;;;5.70;5.05;;;;;;;-1.00;52.46;95978.28;4945845;29;20028;-78
2022/01/12 09:55:31;;;;;;;8.00;5.20;;;;;;;-0.81;51.92;95998.78;4939446;29;20040;-78
2022/01/12 09:57:59;;;;;;;6.43;5.72;;;;;;;-0.81;51.89;95978.34;4933045;29;20039;-78
2022/01/12 10:00:25;;;;;;;5.47;4.85;;;;;;;-0.59;51.46;95982.38;4931134;29;20074;-78
2022/01/12 10:02:51;;;;;;;5.53;4.57;;;;;;;-0.67;51.29;95989.88;4930839;29;20043;-78
2022/01/12 10:05:19;;;;;;;5.78;5.05;;;;;;;-0.64;51.77;95987.88;4885134;29;20122;-79
2022/01/12 10:07:49;;;;;;;7.88;4.78;;;;;;;-0.98;51.67;95986.63;4916289;29;20142;-79
2022/01/12 10:10:22;;;;;;;6.18;5.38;;;;;;;-1.15;52.58;95984.69;4902908;29;20110;-78
2022/01/12 10:12:54;;;;;;;5.07;4.43;;;;;;;-1.29;52.88;95985.91;4920098;29;20519;-78
2022/01/12 10:15:20;;;;;;;6.63;5.97;;;;;;;-0.86;52.08;95985.56;4918733;29;20039;-78
2022/01/12 10:17:45;;;;;;;5.25;4.75;;;;;;;-0.44;50.97;95995.56;4920068;29;20067;-78
2022/01/12 10:20:11;;;;;;;5.15;4.28;;;;;;;-0.42;50.31;95993.66;4919722;29;20132;-78
2022/01/12 10:22:38;;;;;;;7.45;4.63;;;;;;;-0.37;50.35;95991.50;4933668;29;20123;-78
2022/01/12 10:25:14;;;;;;;7.10;5.05;;;;;;;-0.16;49.59;95981.94;4919438;29;20422;-79
2022/01/12 10:27:40;;;;;;;5.70;5.07;;;;;;;-0.02;48.81;95989.16;4921151;29;20055;-78
2022/01/12 10:30:06;;;;;;;4.90;4.50;;;;;;;-0.40;49.78;95981.56;4919712;29;20036;-78
2022/01/12 10:32:32;;;;;;;15.55;5.65;;;;;;;-0.27;50.14;95987.22;4904120;29;20122;-78
2022/01/12 10:35:00;;;;;;;7.57;5.75;;;;;;;-0.14;49.14;95982.63;4919925;29;20411;-78
2022/01/12 10:37:26;;;;;;;6.85;5.07;;;;;;;-0.09;49.45;95983.00;4921504;29;20031;-78
2022/01/12 10:40:00;;;;;;;7.50;5.88;;;;;;;0.03;49.37;95985.41;4937083;29;20027;-79
2022/01/12 10:42:27;;;;;;;4.57;4.28;;;;;;;-0.20;49.52;95983.16;4921237;29;20054;-78
2022/01/12 10:44:54;;;;;;;4.93;4.45;;;;;;;-0.18;49.64;95986.38;4903705;29;20039;-78
2022/01/12 10:47:27;;;;;;;5.57;4.90;;;;;;;-0.46;49.79;95982.91;4919764;29;20036;-78
2022/01/12 10:49:52;;;;;;;6.13;5.18;;;;;;;-0.58;50.31;95978.06;4919526;29;20034;-78
2022/01/12 10:52:20;;;;;;;5.38;4.88;;;;;;;-0.32;49.77;95974.03;4934995;29;20032;-78
2022/01/12 10:54:51;;;;;;;8.65;5.00;;;;;;;-0.40;49.99;95973.91;4936796;29;20110;-78
2022/01/12 10:57:21;;;;;;;6.28;4.82;;;;;;;-0.03;49.01;95979.88;4936941;29;20035;-78
2022/01/12 11:00:03;;;;;;;6.38;4.68;;;;;;;0.07;48.72;95979.06;4919996;29;20044;-78
2022/01/12 11:02:29;;;;;;;5.60;5.00;;;;;;;0.19;48.33;95983.09;4912562;29;20094;-78
2022/01/12 11:04:56;;;;;;;5.95;4.75;;;;;;;0.25;48.19;95969.72;4919561;29;20043;-78
2022/01/12 11:10:09;;;;;;;6.57;5.03;;;;;;;0.32;47.66;95975.88;4450368;23;20130;-78
2022/01/12 11:12:38;;;;;;;10.27;5.43;;;;;;;0.39;47.25;95979.53;4936715;29;20122;-78
2022/01/12 11:15:11;;;;;;;5.47;4.88;;;;;;;0.37;47.86;95976.28;4929516;29;20042;-78
2022/01/12 11:17:38;;;;;;;6.38;5.78;;;;;;;0.54;47.40;95983.22;4912243;29;20572;-81
2022/01/12 11:20:22;;;;;;;5.60;4.75;;;;;;;0.38;47.38;95977.91;4913187;29;20074;-78
2022/01/12 11:22:54;;;;;;;5.53;4.45;;;;;;;0.24;47.64;95980.91;4928032;29;20028;-78
2022/01/12 11:25:25;;;;;;;5.10;4.30;;;;;;;0.15;47.97;95974.88;4929234;29;20093;-78
2022/01/12 11:28:03;;;;;;;5.38;4.43;;;;;;;0.21;47.25;95978.63;4912849;29;20087;-85
2022/01/12 11:30:33;;;;;;;6.00;5.00;;;;;;;-0.12;47.99;95985.84;4927985;29;20039;-82
2022/01/12 11:32:59;;;;;;;4.35;3.97;;;;;;;-0.01;48.22;95966.97;4943365;29;20033;-78
2022/01/12 11:35:29;;;;;;;4.55;4.15;;;;;;;0.16;47.12;95978.22;4948555;29;20039;-82
2022/01/12 11:38:01;;;;;;;5.05;4.55;;;;;;;-0.22;48.34;95984.22;4953755;29;20108;-78
2022/01/12 11:40:38;;;;;;;9.63;6.03;;;;;;;-0.43;49.79;95992.06;4955895;29;20094;-78
2022/01/12 11:43:05;;;;;;;11.88;4.72;;;;;;;-0.24;48.89;95984.38;4944563;29;20039;-85
2022/01/12 11:45:34;;;;;;;5.00;4.57;;;;;;;-0.33;49.39;95988.56;4913145;29;20098;-80
2022/01/12 11:47:59;;;;;;;4.40;4.10;;;;;;;-0.26;48.84;95999.03;4942304;29;20404;-77
2022/01/12 11:50:24;;;;;;;4.57;4.18;;;;;;;-0.32;49.40;95994.47;4941134;29;20027;-78
2022/01/12 11:52:50;;;;;;;5.80;4.38;;;;;;;-0.19;49.26;95987.31;4923718;29;20423;-78
2022/01/12 11:55:17;;;;;;;4.90;4.35;;;;;;;-0.02;48.87;95991.72;4941871;29;20028;-76
2022/01/12 11:57:50;;;;;;;5.70;4.70;;;;;;;0.21;48.04;95992.22;4904461;29;20043;-75
2022/01/12 12:00:23;;;;;;;4.90;4.25;;;;;;;0.22;47.48;95993.84;4922851;29;20047;-76
2022/01/12 12:02:51;;;;;;;6.68;5.78;;;;;;;0.11;48.14;95999.13;4909592;29;20063;-76
2022/01/12 12:05:20;;;;;;;6.85;4.40;;;;;;;0.05;48.07;96002.22;4907690;29;20023;-76
2022/01/12 12:07:50;;;;;;;5.03;4.15;;;;;;;0.06;47.66;95990.25;4924008;29;20039;-77
2022/01/12 12:10:17;;;;;;;7.57;4.07;;;;;;;0.18;48.19;95996.81;4941003;29;20069;-76
2022/01/12 12:12:43;;;;;;;6.85;4.35;;;;;;;0.35;47.58;95998.66;4908450;29;20468;-76
2022/01/12 12:15:13;;;;;;;4.53;4.13;;;;;;;0.53;46.94;96007.22;4895861;29;20102;-77
2022/01/12 12:17:39;;;;;;;4.78;4.38;;;;;;;0.71;45.72;95997.03;4899623;29;20031;-78
2022/01/12 12:20:07;;;;;;;7.35;4.82;;;;;;;0.66;46.31;96000.97;4922971;29;20032;-78
2022/01/12 12:22:38;;;;;;;4.75;4.35;;;;;;;0.66;45.05;96003.53;4924610;29;20487;-78
2022/01/12 12:25:06;;;;;;;6.72;4.60;;;;;;;0.57;45.78;96000.84;4942333;29;20039;-78
2022/01/12 12:27:32;;;;;;;5.10;4.60;;;;;;;0.63;46.17;96002.03;4942199;29;20384;-78
2022/01/12 12:29:58;;;;;;;4.35;3.95;;;;;;;0.63;45.87;95996.13;4937000;29;20515;-77
2022/01/12 12:32:37;;;;;;;4.28;3.88;;;;;;;0.66;45.76;96000.97;4902643;29;20049;-77
2022/01/12 12:35:07;;;;;;;4.30;3.97;;;;;;;0.64;45.95;95995.16;4922940;29;20043;-77
2022/01/12 12:37:37;;;;;;;5.65;4.43;;;;;;;0.62;45.35;95999.63;4924591;29;20035;-77
2022/01/12 12:40:36;;;;;;;8.15;4.78;;;;;;;0.54;45.83;95995.22;4905828;29;20063;-78
2022/01/12 12:43:20;;;;;;;4.75;4.15;;;;;;;0.64;45.92;95998.53;4938870;29;20050;-78
2022/01/12 12:45:49;;;;;;;4.78;4.10;;;;;;;0.60;45.86;96000.56;4909099;29;20140;-77
2022/01/12 12:48:16;;;;;;;9.00;4.35;;;;;;;0.35;46.20;96001.22;4926454;29;20573;-78
2022/01/12 12:50:53;;;;;;;6.85;4.72;;;;;;;0.36;46.31;96000.28;4929939;29;20128;-78
2022/01/12 12:53:18;;;;;;;4.70;3.58;;;;;;;0.47;45.77;95984.72;4927541;29;20140;-78
2022/01/12 12:55:44;;;;;;;7.10;4.35;;;;;;;0.50;44.89;95999.03;4944090;29;20048;-78
2022/01/12 12:58:10;;;;;;;3.65;3.38;;;;;;;0.38;45.46;95995.00;4927945;29;20108;-79
2022/01/12 13:00:36;;;;;;;5.40;3.97;;;;;;;0.39;45.58;95994.06;4928943;29;20027;-79
2022/01/12 13:03:02;;;;;;;4.22;3.85;;;;;;;0.56;45.10;95990.75;4926903;29;20035;-80
2022/01/12 13:05:29;;;;;;;3.63;3.28;;;;;;;0.69;44.33;95995.56;4923697;29;20070;-81
2022/01/12 13:07:55;;;;;;;4.00;3.60;;;;;;;0.86;43.86;95987.94;4927313;29;20483;-80
2022/01/12 13:10:22;;;;;;;4.28;3.97;;;;;;;0.96;44.16;95999.88;4910777;29;20047;-78
2022/01/12 13:12:49;;;;;;;7.30;4.70;;;;;;;0.99;44.63;95999.59;4910088;29;20104;-80
2022/01/12 13:15:24;;;;;;;6.90;4.32;;;;;;;0.94;44.46;95999.19;4914063;29;20032;-79
2022/01/12 13:18:00;;;;;;;6.18;4.53;;;;;;;1.09;43.71;95993.47;4928328;29;20055;-80
2022/01/12 13:23:04;;;;;;;4.60;4.20;;;;;;;1.00;44.10;96001.22;4944107;29;20107;-80
2022/01/12 13:25:29;;;;;;;6.05;5.45;;;;;;;1.00;43.94;96002.03;4914245;29;20122;-81
2022/01/12 13:27:56;;;;;;;4.85;4.05;;;;;;;1.05;43.86;95997.25;4930185;29;20123;-81
2022/01/12 13:30:24;;;;;;;4.45;4.05;;;;;;;1.29;43.21;96003.56;4913202;29;20047;-81
2022/01/12 13:32:51;;;;;;;5.65;4.50;;;;;;;1.34;43.16;96011.66;4912381;29;20031;-81
2022/01/12 13:35:17;;;;;;;8.73;4.45;;;;;;;1.41;42.63;96020.34;4896099;29;20036;-81
2022/01/12 13:37:44;;;;;;;6.63;4.68;;;;;;;1.12;43.42;96012.84;4912924;29;20043;-81